createdAt,value
2018-04-14T00:00:58.208Z,12.89
2018-04-14T00:01:58.188Z,12.85
2018-04-14T00:02:58.900Z,12.85
2018-04-14T00:03:58.170Z,12.93
2018-04-14T00:04:58.168Z,12.92
2018-04-14T00:05:58.183Z,12.92
2018-04-14T00:06:58.225Z,12.89
2018-04-14T00:07:58.192Z,12.93
2018-04-14T00:08:58.183Z,12.74
2018-04-14T00:09:58.181Z,12.68
2018-04-14T00:10:58.436Z,12.75
2018-04-14T00:11:58.185Z,12.78
2018-04-14T00:12:58.188Z,12.77
2018-04-14T00:13:58.198Z,12.65
2018-04-14T00:14:58.369Z,12.74
2018-04-14T00:15:58.274Z,12.70
2018-04-14T00:16:58.203Z,12.70
2018-04-14T00:17:58.202Z,12.59
2018-04-14T00:18:58.386Z,12.60
2018-04-14T00:19:58.195Z,12.71
2018-04-14T00:20:58.227Z,12.67
2018-04-14T00:21:58.204Z,12.70
2018-04-14T00:22:58.296Z,12.72
2018-04-14T00:23:58.210Z,12.64
2018-04-14T00:24:58.215Z,12.70
2018-04-14T00:25:58.242Z,12.71
2018-04-14T00:26:58.433Z,12.59
2018-04-14T00:27:58.215Z,12.59
2018-04-14T00:28:58.224Z,12.62
2018-04-14T00:29:58.292Z,12.70
2018-04-14T00:30:58.222Z,12.65
2018-04-14T00:31:58.229Z,12.64
2018-04-14T00:32:58.223Z,12.60
2018-04-14T00:33:58.346Z,12.57
2018-04-14T00:34:58.233Z,12.56
2018-04-14T00:35:58.292Z,12.64
2018-04-14T00:36:58.239Z,12.64
2018-04-14T00:37:58.253Z,12.56
2018-04-14T00:38:58.237Z,12.57
2018-04-14T00:39:58.248Z,12.47
2018-04-14T00:40:58.239Z,12.56
2018-04-14T00:41:58.324Z,12.62
2018-04-14T00:42:58.258Z,12.59
2018-04-14T00:43:58.246Z,12.59
2018-04-14T00:44:58.252Z,12.56
2018-04-14T00:45:58.263Z,12.60
2018-04-14T00:46:58.285Z,12.72
2018-04-14T00:47:58.260Z,12.59
2018-04-14T00:48:58.262Z,12.65
2018-04-14T00:49:58.267Z,12.57
2018-04-14T00:50:58.286Z,12.60
2018-04-14T00:51:58.399Z,12.67
2018-04-14T00:52:58.507Z,12.68
2018-04-14T00:53:58.268Z,12.71
2018-04-14T00:54:58.299Z,12.65
2018-04-14T00:55:58.268Z,12.75
2018-04-14T00:56:58.278Z,12.70
2018-04-14T00:57:58.276Z,12.74
2018-04-14T00:58:58.324Z,12.71
2018-04-14T00:59:58.285Z,12.68
2018-04-14T01:00:58.334Z,12.64
2018-04-14T01:01:58.286Z,12.68
2018-04-14T01:02:58.284Z,12.78
2018-04-14T01:03:58.795Z,12.65
2018-04-14T01:04:58.295Z,12.70
2018-04-14T01:05:58.359Z,12.67
2018-04-14T01:06:58.313Z,12.77
2018-04-14T01:07:58.296Z,12.77
2018-04-14T01:08:58.353Z,12.75
2018-04-14T01:09:58.309Z,12.75
2018-04-14T01:10:58.305Z,12.72
2018-04-14T01:11:58.302Z,12.74
2018-04-14T01:12:58.307Z,12.75
2018-04-14T01:13:58.319Z,12.68
2018-04-14T01:14:58.314Z,12.79
2018-04-14T01:15:58.306Z,12.78
2018-04-14T01:16:58.319Z,12.78
2018-04-14T01:17:58.319Z,12.79
2018-04-14T01:18:58.398Z,12.74
2018-04-14T01:19:58.328Z,12.74
2018-04-14T01:20:58.409Z,12.82
2018-04-14T01:21:58.331Z,12.82
2018-04-14T01:22:58.605Z,12.75
2018-04-14T01:23:58.432Z,12.75
2018-04-14T01:24:58.347Z,12.78
2018-04-14T01:25:58.338Z,12.78
2018-04-14T01:26:58.337Z,12.72
2018-04-14T01:27:58.355Z,12.86
2018-04-14T01:28:58.351Z,12.75
2018-04-14T01:29:58.361Z,12.85
2018-04-14T01:30:58.348Z,12.82
2018-04-14T01:31:58.350Z,12.74
2018-04-14T01:32:58.358Z,12.72
2018-04-14T01:33:58.355Z,12.78
2018-04-14T01:34:58.366Z,12.72
2018-04-14T01:35:58.358Z,12.77
2018-04-14T01:36:58.354Z,12.90
2018-04-14T01:37:58.355Z,12.79
2018-04-14T01:38:58.382Z,12.72
2018-04-14T01:39:58.364Z,12.79
2018-04-14T01:40:58.373Z,12.83
2018-04-14T01:41:58.370Z,12.75
2018-04-14T01:42:58.366Z,12.85
2018-04-14T01:43:58.371Z,12.74
2018-04-14T01:44:58.394Z,12.90
2018-04-14T01:45:58.419Z,12.85
2018-04-14T01:46:58.385Z,12.75
2018-04-14T01:47:58.400Z,12.77
2018-04-14T01:48:58.392Z,12.77
2018-04-14T01:49:58.380Z,12.77
2018-04-14T01:50:58.438Z,12.68
2018-04-14T01:51:58.397Z,12.74
2018-04-14T01:52:58.437Z,12.85
2018-04-14T01:53:58.933Z,12.78
2018-04-14T01:54:58.402Z,12.78
2018-04-14T01:55:58.408Z,12.86
2018-04-14T01:56:58.407Z,12.89
2018-04-14T01:57:58.404Z,12.79
2018-04-14T01:58:58.470Z,12.72
2018-04-14T01:59:58.406Z,12.86
2018-04-14T02:00:58.405Z,12.78
2018-04-14T02:01:58.430Z,12.72
2018-04-14T02:02:58.420Z,12.87
2018-04-14T02:03:58.411Z,12.86
2018-04-14T02:04:58.552Z,12.85
2018-04-14T02:05:58.427Z,12.82
2018-04-14T02:06:58.423Z,12.78
2018-04-14T02:07:58.601Z,12.77
2018-04-14T02:08:58.428Z,12.77
2018-04-14T02:09:58.418Z,12.67
2018-04-14T02:10:58.431Z,12.72
2018-04-14T02:11:58.569Z,12.70
2018-04-14T02:12:58.734Z,12.72
2018-04-14T02:13:58.446Z,12.70
2018-04-14T02:14:58.440Z,12.75
2018-04-14T02:15:58.450Z,12.75
2018-04-14T02:16:58.443Z,12.70
2018-04-14T02:17:58.455Z,12.72
2018-04-14T02:18:58.745Z,12.74
2018-04-14T02:19:58.455Z,12.77
2018-04-14T02:20:58.465Z,12.77
2018-04-14T02:21:58.618Z,12.64
2018-04-14T02:22:58.450Z,12.71
2018-04-14T02:23:58.454Z,12.74
2018-04-14T02:24:58.465Z,12.68
2018-04-14T02:25:58.466Z,12.68
2018-04-14T02:26:58.456Z,12.78
2018-04-14T02:27:58.710Z,12.75
2018-04-14T02:28:58.478Z,12.67
2018-04-14T02:29:58.473Z,12.72
2018-04-14T02:30:58.486Z,12.72
2018-04-14T02:31:58.481Z,12.68
2018-04-14T02:32:58.477Z,12.71
2018-04-14T02:33:58.472Z,12.78
2018-04-14T02:34:58.478Z,12.67
2018-04-14T02:35:58.491Z,12.67
2018-04-14T02:36:58.477Z,12.64
2018-04-14T02:37:58.553Z,12.68
2018-04-14T02:38:59.453Z,12.54
2018-04-14T02:39:58.497Z,12.56
2018-04-14T02:40:58.489Z,12.62
2018-04-14T02:41:58.488Z,12.60
2018-04-14T02:42:58.505Z,12.64
2018-04-14T02:43:58.497Z,12.62
2018-04-14T02:44:58.514Z,12.68
2018-04-14T02:45:58.495Z,12.53
2018-04-14T02:46:58.538Z,12.53
2018-04-14T02:47:58.619Z,12.59
2018-04-14T02:48:58.519Z,12.64
2018-04-14T02:49:58.505Z,12.60
2018-04-14T02:50:58.515Z,12.64
2018-04-14T02:51:58.515Z,12.53
2018-04-14T02:52:58.515Z,12.53
2018-04-14T02:53:58.507Z,12.57
2018-04-14T02:54:58.525Z,12.56
2018-04-14T02:55:58.592Z,12.65
2018-04-14T02:56:58.527Z,12.52
2018-04-14T02:57:58.540Z,12.54
2018-04-14T02:58:58.529Z,12.49
2018-04-14T02:59:58.530Z,12.47
2018-04-14T03:00:58.537Z,12.52
2018-04-14T03:01:58.525Z,12.52
2018-04-14T03:02:58.554Z,12.52
2018-04-14T03:03:58.547Z,12.52
2018-04-14T03:04:58.544Z,12.49
2018-04-14T03:05:58.546Z,12.53
2018-04-14T03:06:58.551Z,12.53
2018-04-14T03:07:58.667Z,12.46
2018-04-14T03:08:58.534Z,12.53
2018-04-14T03:09:58.684Z,12.52
2018-04-14T03:10:58.557Z,12.54
2018-04-14T03:11:58.550Z,12.52
2018-04-14T03:12:58.562Z,12.56
2018-04-14T03:13:58.552Z,12.47
2018-04-14T03:14:58.556Z,12.57
2018-04-14T03:15:58.560Z,12.54
2018-04-14T03:16:58.570Z,12.53
2018-04-14T03:17:58.573Z,12.49
2018-04-14T03:18:58.569Z,12.62
2018-04-14T03:19:58.563Z,12.53
2018-04-14T03:20:58.579Z,12.64
2018-04-14T03:21:58.682Z,12.57
2018-04-14T03:22:58.583Z,12.65
2018-04-14T03:23:58.565Z,12.57
2018-04-14T03:24:58.648Z,12.59
2018-04-14T03:25:58.583Z,12.62
2018-04-14T03:26:58.609Z,12.64
2018-04-14T03:27:59.461Z,12.62
2018-04-14T03:28:58.658Z,12.57
2018-04-14T03:29:58.800Z,12.78
2018-04-14T03:30:58.634Z,12.67
2018-04-14T03:31:58.594Z,12.62
2018-04-14T03:32:58.595Z,12.68
2018-04-14T03:33:58.597Z,12.65
2018-04-14T03:34:58.592Z,12.65
2018-04-14T03:35:58.733Z,12.60
2018-04-14T03:36:58.603Z,12.64
2018-04-14T03:37:58.607Z,12.60
2018-04-14T03:38:58.624Z,12.67
2018-04-14T03:39:58.614Z,12.62
2018-04-14T03:40:58.598Z,12.64
2018-04-14T03:41:58.630Z,12.70
2018-04-14T03:42:58.614Z,12.64
2018-04-14T03:43:58.719Z,12.53
2018-04-14T03:44:58.611Z,12.64
2018-04-14T03:45:58.624Z,12.60
2018-04-14T03:46:58.618Z,12.65
2018-04-14T03:47:58.823Z,12.60
2018-04-14T03:48:58.657Z,12.53
2018-04-14T03:49:58.646Z,12.47
2018-04-14T03:50:58.780Z,12.53
2018-04-14T03:51:58.636Z,12.45
2018-04-14T03:52:58.651Z,12.54
2018-04-14T03:53:58.633Z,12.68
2018-04-14T03:54:58.634Z,12.67
2018-04-14T03:55:58.646Z,12.53
2018-04-14T03:56:58.629Z,12.52
2018-04-14T03:57:58.643Z,12.56
2018-04-14T03:58:58.654Z,12.62
2018-04-14T03:59:58.650Z,12.70
2018-04-14T04:00:58.653Z,12.68
2018-04-14T04:01:58.821Z,12.62
2018-04-14T04:02:58.666Z,12.60
2018-04-14T04:03:58.659Z,12.62
2018-04-14T04:04:58.653Z,12.57
2018-04-14T04:05:58.656Z,12.56
2018-04-14T04:06:58.660Z,12.57
2018-04-14T04:07:58.820Z,12.53
2018-04-14T04:08:58.671Z,12.60
2018-04-14T04:09:58.842Z,12.68
2018-04-14T04:10:58.669Z,12.57
2018-04-14T04:11:58.854Z,12.56
2018-04-14T04:12:58.679Z,12.56
2018-04-14T04:13:58.674Z,12.57
2018-04-14T04:14:58.683Z,12.54
2018-04-14T04:15:58.673Z,12.54
2018-04-14T04:16:58.684Z,12.56
2018-04-14T04:17:58.681Z,12.53
2018-04-14T04:18:58.924Z,12.62
2018-04-14T04:19:58.674Z,12.54
2018-04-14T04:20:58.692Z,12.60
2018-04-14T04:21:58.690Z,12.57
2018-04-14T04:22:58.748Z,12.54
2018-04-14T04:23:58.707Z,12.56
2018-04-14T04:24:59.018Z,12.35
2018-04-14T04:25:58.697Z,12.37
2018-04-14T04:26:58.736Z,12.42
2018-04-14T04:27:58.702Z,12.52
2018-04-14T04:28:58.695Z,12.54
2018-04-14T04:29:58.701Z,12.41
2018-04-14T04:30:58.714Z,12.38
2018-04-14T04:31:58.727Z,12.38
2018-04-14T04:32:58.710Z,12.41
2018-04-14T04:33:58.714Z,12.38
2018-04-14T04:34:58.718Z,12.41
2018-04-14T04:35:58.903Z,12.39
2018-04-14T04:36:58.724Z,12.39
2018-04-14T04:37:58.917Z,12.37
2018-04-14T04:38:58.726Z,12.41
2018-04-14T04:39:58.718Z,12.35
2018-04-14T04:40:58.725Z,12.42
2018-04-14T04:41:58.723Z,12.32
2018-04-14T04:42:58.869Z,12.27
2018-04-14T04:43:58.816Z,12.23
2018-04-14T04:44:58.739Z,12.31
2018-04-14T04:45:59.315Z,12.31
2018-04-14T04:46:58.768Z,12.21
2018-04-14T04:47:58.762Z,12.20
2018-04-14T04:48:58.822Z,12.19
2018-04-14T04:49:58.755Z,12.17
2018-04-14T04:50:58.738Z,12.12
2018-04-14T04:51:58.768Z,12.10
2018-04-14T04:52:58.858Z,12.13
2018-04-14T04:53:58.742Z,12.07
2018-04-14T04:54:58.925Z,12.09
2018-04-14T04:55:58.755Z,12.02
2018-04-14T04:56:58.762Z,12.12
2018-04-14T04:57:58.773Z,12.12
2018-04-14T04:58:58.749Z,12.12
2018-04-14T04:59:58.770Z,12.13
2018-04-14T05:00:58.765Z,12.07
2018-04-14T05:01:58.772Z,12.05
2018-04-14T05:02:58.765Z,11.98
2018-04-14T05:03:58.776Z,11.95
2018-04-14T05:04:58.776Z,11.98
2018-04-14T05:05:58.768Z,11.96
2018-04-14T05:06:58.792Z,11.90
2018-04-14T05:07:58.784Z,11.98
2018-04-14T05:08:58.778Z,11.91
2018-04-14T05:09:58.929Z,11.88
2018-04-14T05:10:58.906Z,11.88
2018-04-14T05:11:58.773Z,11.90
2018-04-14T05:12:59.488Z,11.94
2018-04-14T05:13:58.786Z,11.91
2018-04-14T05:14:58.874Z,11.85
2018-04-14T05:15:58.791Z,11.86
2018-04-14T05:16:58.863Z,11.90
2018-04-14T05:17:58.784Z,11.83
2018-04-14T05:18:58.833Z,11.88
2018-04-14T05:19:58.785Z,11.99
2018-04-14T05:20:58.797Z,11.86
2018-04-14T05:21:58.793Z,11.91
2018-04-14T05:22:58.803Z,11.85
2018-04-14T05:23:58.799Z,11.76
2018-04-14T05:24:58.798Z,11.78
2018-04-14T05:25:58.807Z,11.86
2018-04-14T05:26:58.807Z,11.79
2018-04-14T05:27:58.798Z,11.90
2018-04-14T05:28:58.805Z,11.75
2018-04-14T05:29:58.803Z,11.80
2018-04-14T05:30:58.823Z,11.85
2018-04-14T05:31:58.816Z,11.85
2018-04-14T05:32:58.872Z,11.86
2018-04-14T05:33:58.808Z,11.86
2018-04-14T05:34:58.824Z,11.85
2018-04-14T05:35:58.985Z,11.75
2018-04-14T05:36:58.888Z,11.90
2018-04-14T05:37:59.502Z,11.80
2018-04-14T05:38:59.034Z,11.79
2018-04-14T05:39:58.833Z,11.80
2018-04-14T05:40:58.829Z,11.99
2018-04-14T05:41:58.835Z,11.96
2018-04-14T05:42:58.831Z,11.85
2018-04-14T05:43:58.847Z,11.79
2018-04-14T05:44:58.840Z,11.96
2018-04-14T05:45:58.888Z,11.90
2018-04-14T05:46:58.838Z,12.02
2018-04-14T05:47:58.851Z,12.01
2018-04-14T05:48:58.845Z,12.14
2018-04-14T05:49:58.871Z,12.14
2018-04-14T05:50:58.940Z,12.12
2018-04-14T05:51:58.843Z,12.17
2018-04-14T05:52:58.845Z,12.12
2018-04-14T05:53:58.851Z,12.13
2018-04-14T05:54:58.861Z,12.10
2018-04-14T05:55:58.868Z,12.10
2018-04-14T05:56:58.846Z,12.09
2018-04-14T05:57:58.858Z,12.02
2018-04-14T05:58:58.864Z,11.98
2018-04-14T05:59:58.888Z,12.04
2018-04-14T06:00:58.861Z,12.07
2018-04-14T06:01:58.873Z,12.05
2018-04-14T06:02:58.963Z,12.07
2018-04-14T06:03:58.891Z,12.07
2018-04-14T06:04:58.875Z,12.05
2018-04-14T06:05:58.870Z,11.95
2018-04-14T06:06:58.913Z,11.91
2018-04-14T06:07:58.865Z,11.94
2018-04-14T06:08:58.879Z,12.02
2018-04-14T06:09:58.981Z,12.05
2018-04-14T06:10:59.020Z,12.02
2018-04-14T06:11:58.889Z,12.10
2018-04-14T06:12:59.010Z,12.14
2018-04-14T06:13:58.884Z,12.13
2018-04-14T06:14:58.920Z,12.21
2018-04-14T06:15:58.881Z,12.20
2018-04-14T06:16:58.940Z,12.17
2018-04-14T06:17:58.882Z,12.13
2018-04-14T06:18:58.895Z,12.21
2018-04-14T06:19:58.890Z,12.21
2018-04-14T06:20:58.899Z,12.23
2018-04-14T06:21:58.904Z,12.35
2018-04-14T06:22:58.893Z,12.29
2018-04-14T06:23:58.920Z,12.29
2018-04-14T06:24:58.959Z,12.24
2018-04-14T06:25:58.907Z,12.32
2018-04-14T06:26:59.305Z,12.32
2018-04-14T06:27:58.932Z,12.31
2018-04-14T06:28:58.914Z,12.32
2018-04-14T06:29:58.925Z,12.35
2018-04-14T06:30:58.913Z,12.42
2018-04-14T06:31:58.948Z,12.34
2018-04-14T06:32:58.921Z,12.31
2018-04-14T06:33:58.931Z,12.50
2018-04-14T06:34:58.925Z,12.60
2018-04-14T06:35:58.920Z,12.79
2018-04-14T06:36:58.930Z,12.92
2018-04-14T06:37:58.932Z,13.04
2018-04-14T06:38:58.928Z,13.38
2018-04-14T06:39:58.952Z,13.62
2018-04-14T06:40:58.934Z,14.02
2018-04-14T06:41:58.935Z,14.02
2018-04-14T06:42:58.935Z,14.45
2018-04-14T06:43:58.950Z,14.58
2018-04-14T06:44:58.942Z,14.94
2018-04-14T06:45:58.945Z,15.64
2018-04-14T06:46:58.973Z,15.59
2018-04-14T06:47:58.957Z,15.84
2018-04-14T06:48:58.958Z,16.25
2018-04-14T06:49:58.960Z,16.56
2018-04-14T06:50:59.517Z,16.82
2018-04-14T06:51:58.960Z,16.53
2018-04-14T06:52:58.968Z,15.97
2018-04-14T06:53:58.967Z,15.76
2018-04-14T06:54:59.492Z,16.20
2018-04-14T06:55:58.971Z,17.01
2018-04-14T06:56:58.973Z,17.31
2018-04-14T06:57:58.977Z,17.40
2018-04-14T06:58:58.980Z,16.63
2018-04-14T06:59:58.987Z,16.04
2018-04-14T07:00:59.046Z,15.87
2018-04-14T07:01:58.986Z,15.34
2018-04-14T07:02:58.994Z,15.11
2018-04-14T07:03:59.049Z,14.89
2018-04-14T07:04:59.000Z,14.94
2018-04-14T07:05:59.004Z,15.02
2018-04-14T07:06:58.998Z,15.02
2018-04-14T07:07:59.027Z,15.49
2018-04-14T07:08:59.015Z,15.67
2018-04-14T07:09:59.015Z,15.71
2018-04-14T07:10:59.025Z,15.56
2018-04-14T07:12:00.024Z,15.27
2018-04-14T07:12:59.020Z,14.95
2018-04-14T07:13:59.030Z,14.89
2018-04-14T07:14:59.040Z,15.19
2018-04-14T07:15:59.025Z,15.13
2018-04-14T07:16:59.034Z,15.50
2018-04-14T07:17:59.057Z,15.64
2018-04-14T07:18:59.042Z,15.93
2018-04-14T07:19:59.031Z,15.84
2018-04-14T07:20:59.045Z,15.87
2018-04-14T07:21:59.097Z,16.01
2018-04-14T07:22:59.050Z,16.23
2018-04-14T07:23:59.071Z,16.53
2018-04-14T07:24:59.057Z,17.30
2018-04-14T07:25:59.062Z,17.81
2018-04-14T07:26:59.079Z,18.66
2018-04-14T07:27:59.066Z,19.21
2018-04-14T07:28:59.083Z,18.39
2018-04-14T07:29:59.072Z,17.96
2018-04-14T07:30:59.074Z,18.39
2018-04-14T07:31:59.128Z,17.79
2018-04-14T07:32:59.085Z,17.26
2018-04-14T07:33:59.086Z,17.40
2018-04-14T07:34:59.082Z,17.18
2018-04-14T07:35:59.123Z,16.88
2018-04-14T07:36:59.106Z,16.86
2018-04-14T07:37:59.103Z,17.28
2018-04-14T07:38:59.105Z,17.21
2018-04-14T07:39:59.115Z,16.86
2018-04-14T07:40:59.109Z,16.60
2018-04-14T07:41:59.117Z,16.24
2018-04-14T07:42:59.288Z,16.00
2018-04-14T07:43:59.202Z,15.86
2018-04-14T07:44:59.155Z,15.92
2018-04-14T07:45:59.172Z,15.78
2018-04-14T07:46:59.163Z,15.62
2018-04-14T07:47:59.168Z,15.60
2018-04-14T07:48:59.148Z,15.51
2018-04-14T07:49:59.152Z,15.47
2018-04-14T07:50:59.176Z,15.43
2018-04-14T07:51:59.171Z,15.78
2018-04-14T07:52:59.147Z,15.74
2018-04-14T07:53:59.160Z,16.27
2018-04-14T07:54:59.162Z,16.24
2018-04-14T07:55:59.173Z,16.24
2018-04-14T07:56:59.182Z,16.02
2018-04-14T07:57:59.176Z,16.02
2018-04-14T07:58:59.189Z,15.87
2018-04-14T07:59:59.195Z,15.94
2018-04-14T08:00:59.210Z,16.07
2018-04-14T08:01:59.224Z,16.30
2018-04-14T08:02:59.210Z,16.86
2018-04-14T08:03:59.202Z,17.28
2018-04-14T08:04:59.200Z,18.12
2018-04-14T08:05:59.205Z,18.94
2018-04-14T08:06:59.200Z,19.50
2018-04-14T08:07:59.207Z,19.06
2018-04-14T08:08:59.224Z,18.36
2018-04-14T08:09:59.250Z,17.87
2018-04-14T08:10:59.212Z,17.63
2018-04-14T08:11:59.229Z,17.38
2018-04-14T08:12:59.231Z,17.14
2018-04-14T08:13:59.237Z,17.79
2018-04-14T08:14:59.236Z,18.37
2018-04-14T08:15:59.248Z,18.10
2018-04-14T08:16:59.254Z,17.58
2018-04-14T08:17:59.287Z,17.18
2018-04-14T08:18:59.263Z,16.96
2018-04-14T08:19:59.272Z,16.85
2018-04-14T08:20:59.268Z,18.32
2018-04-14T08:21:59.261Z,19.00
2018-04-14T08:22:59.278Z,18.03
2018-04-14T08:23:59.270Z,18.00
2018-04-14T08:24:59.344Z,18.00
2018-04-14T08:26:00.057Z,18.67
2018-04-14T08:26:59.429Z,18.27
2018-04-14T08:27:59.295Z,18.36
2018-04-14T08:28:59.326Z,18.21
2018-04-14T08:29:59.326Z,19.18
2018-04-14T08:30:59.388Z,19.96
2018-04-14T08:31:59.320Z,20.14
2018-04-14T08:32:59.339Z,19.87
2018-04-14T08:33:59.742Z,19.54
2018-04-14T08:34:59.337Z,19.56
2018-04-14T08:35:59.331Z,20.57
2018-04-14T08:36:59.397Z,20.89
2018-04-14T08:37:59.357Z,19.98
2018-04-14T08:38:59.361Z,19.25
2018-04-14T08:39:59.359Z,18.51
2018-04-14T08:40:59.366Z,17.99
2018-04-14T08:41:59.367Z,17.55
2018-04-14T08:42:59.381Z,17.12
2018-04-14T08:43:59.380Z,16.45
2018-04-14T08:44:59.389Z,16.41
2018-04-14T08:45:59.394Z,16.21
2018-04-14T08:46:59.406Z,16.21
2018-04-14T08:47:59.410Z,16.45
2018-04-14T08:48:59.436Z,17.11
2018-04-14T08:49:59.426Z,17.16
2018-04-14T08:50:59.419Z,17.15
2018-04-14T08:51:59.496Z,17.46
2018-04-14T08:52:59.436Z,17.33
2018-04-14T08:53:59.453Z,17.28
2018-04-14T08:54:59.453Z,17.92
2018-04-14T08:55:59.449Z,18.60
2018-04-14T08:56:59.452Z,18.27
2018-04-14T08:57:59.693Z,17.77
2018-04-14T08:58:59.460Z,17.56
2018-04-14T08:59:59.467Z,17.48
2018-04-14T09:00:59.483Z,16.78
2018-04-14T09:01:59.515Z,16.82
2018-04-14T09:02:59.485Z,17.04
2018-04-14T09:03:59.504Z,17.38
2018-04-14T09:04:59.510Z,17.46
2018-04-14T09:05:59.502Z,17.30
2018-04-14T09:06:59.507Z,17.18
2018-04-14T09:07:59.508Z,17.00
2018-04-14T09:08:59.523Z,16.68
2018-04-14T09:09:59.523Z,16.34
2018-04-14T09:10:59.542Z,16.20
2018-04-14T09:11:59.531Z,16.07
2018-04-14T09:12:59.780Z,16.28
2018-04-14T09:13:59.531Z,16.42
2018-04-14T09:14:59.549Z,16.34
2018-04-14T09:15:59.543Z,16.27
2018-04-14T09:16:59.541Z,16.33
2018-04-14T09:17:59.567Z,16.39
2018-04-14T09:18:59.554Z,16.66
2018-04-14T09:19:59.599Z,16.61
2018-04-14T09:20:59.577Z,16.78
2018-04-14T09:21:59.568Z,16.67
2018-04-14T09:22:59.729Z,16.39
2018-04-14T09:23:59.573Z,16.12
2018-04-14T09:24:59.575Z,16.07
2018-04-14T09:25:59.586Z,16.04
2018-04-14T09:26:59.592Z,16.08
2018-04-14T09:28:00.583Z,16.48
2018-04-14T09:28:59.605Z,16.57
2018-04-14T09:29:59.598Z,16.67
2018-04-14T09:30:59.679Z,16.64
2018-04-14T09:31:59.656Z,16.81
2018-04-14T09:32:59.625Z,17.21
2018-04-14T09:33:59.614Z,17.58
2018-04-14T09:34:59.617Z,17.64
2018-04-14T09:35:59.619Z,17.82
2018-04-14T09:36:59.740Z,18.27
2018-04-14T09:37:59.638Z,17.82
2018-04-14T09:38:59.631Z,17.82
2018-04-14T09:39:59.686Z,18.11
2018-04-14T09:40:59.645Z,17.90
2018-04-14T09:41:59.666Z,17.74
2018-04-14T09:42:59.678Z,17.71
2018-04-14T09:43:59.661Z,17.68
2018-04-14T09:44:59.668Z,18.20
2018-04-14T09:45:59.707Z,17.79
2018-04-14T09:46:59.675Z,17.30
2018-04-14T09:47:59.719Z,17.54
2018-04-14T09:48:59.686Z,17.25
2018-04-14T09:49:59.679Z,17.36
2018-04-14T09:50:59.806Z,17.43
2018-04-14T09:51:59.704Z,17.36
2018-04-14T09:52:59.699Z,17.28
2018-04-14T09:53:59.712Z,17.38
2018-04-14T09:54:59.762Z,17.22
2018-04-14T09:55:59.716Z,17.26
2018-04-14T09:56:59.718Z,17.19
2018-04-14T09:57:59.720Z,17.41
2018-04-14T09:58:59.728Z,17.63
2018-04-14T09:59:59.738Z,17.26
2018-04-14T10:00:59.745Z,17.21
2018-04-14T10:02:00.602Z,17.31
2018-04-14T10:02:59.876Z,17.46
2018-04-14T10:03:59.766Z,17.43
2018-04-14T10:04:59.760Z,17.68
2018-04-14T10:05:59.758Z,17.68
2018-04-14T10:06:59.768Z,17.71
2018-04-14T10:07:59.774Z,17.74
2018-04-14T10:08:59.774Z,17.71
2018-04-14T10:09:59.779Z,16.96
2018-04-14T10:10:59.773Z,16.85
2018-04-14T10:11:59.784Z,16.53
2018-04-14T10:12:59.806Z,16.58
2018-04-14T10:13:59.802Z,16.48
2018-04-14T10:14:59.816Z,16.56
2018-04-14T10:15:59.818Z,16.66
2018-04-14T10:16:59.814Z,16.60
2018-04-14T10:17:59.816Z,16.50
2018-04-14T10:18:59.822Z,16.66
2018-04-14T10:19:59.824Z,16.78
2018-04-14T10:20:59.848Z,16.96
2018-04-14T10:22:00.610Z,16.98
2018-04-14T10:22:59.839Z,17.31
2018-04-14T10:23:59.888Z,17.46
2018-04-14T10:24:59.950Z,17.33
2018-04-14T10:25:59.856Z,17.30
2018-04-14T10:26:59.920Z,17.28
2018-04-14T10:27:59.872Z,17.14
2018-04-14T10:28:59.901Z,17.15
2018-04-14T10:29:59.871Z,17.11
2018-04-14T10:30:59.880Z,17.00
2018-04-14T10:31:59.891Z,17.00
2018-04-14T10:32:59.880Z,16.86
2018-04-14T10:33:59.868Z,16.89
2018-04-14T10:34:59.885Z,17.01
2018-04-14T10:35:59.890Z,17.16
2018-04-14T10:36:59.900Z,17.07
2018-04-14T10:38:00.056Z,16.96
2018-04-14T10:39:00.617Z,16.68
2018-04-14T10:39:59.898Z,16.57
2018-04-14T10:40:59.903Z,16.56
2018-04-14T10:41:59.916Z,17.36
2018-04-14T10:42:59.909Z,17.41
2018-04-14T10:43:59.924Z,17.25
2018-04-14T10:44:59.924Z,17.16
2018-04-14T10:45:59.935Z,17.25
2018-04-14T10:46:59.986Z,17.48
2018-04-14T10:47:59.944Z,17.15
2018-04-14T10:48:59.996Z,17.01
2018-04-14T10:49:59.973Z,17.14
2018-04-14T10:51:00.089Z,17.08
2018-04-14T10:51:59.951Z,17.12
2018-04-14T10:53:00.010Z,17.15
2018-04-14T10:53:59.951Z,17.25
2018-04-14T10:54:59.983Z,17.15
2018-04-14T10:55:59.974Z,17.30
2018-04-14T10:56:59.974Z,17.63
2018-04-14T10:58:00.001Z,17.68
2018-04-14T10:58:59.981Z,17.63
2018-04-14T10:59:59.983Z,17.31
2018-04-14T11:01:00.002Z,17.15
2018-04-14T11:02:00.630Z,17.25
2018-04-14T11:02:59.992Z,17.41
2018-04-14T11:03:59.997Z,17.62
2018-04-14T11:04:59.999Z,17.54
2018-04-14T11:06:00.046Z,17.31
2018-04-14T11:07:00.000Z,17.59
2018-04-14T11:08:00.004Z,17.84
2018-04-14T11:09:00.046Z,17.97
2018-04-14T11:10:00.023Z,17.70
2018-04-14T11:11:00.028Z,17.81
2018-04-14T11:12:00.025Z,17.99
2018-04-14T11:13:00.042Z,18.00
2018-04-14T11:14:00.044Z,17.99
2018-04-14T11:15:00.050Z,17.96
2018-04-14T11:16:00.058Z,18.17
2018-04-14T11:17:00.049Z,18.33
2018-04-14T11:18:00.054Z,18.36
2018-04-14T11:19:00.049Z,18.54
2018-04-14T11:20:00.071Z,18.36
2018-04-14T11:21:00.067Z,18.15
2018-04-14T11:22:00.072Z,18.02
2018-04-14T11:23:00.202Z,18.10
2018-04-14T11:24:00.107Z,18.37
2018-04-14T11:25:00.088Z,18.81
2018-04-14T11:26:00.095Z,19.46
2018-04-14T11:27:00.086Z,19.48
2018-04-14T11:28:00.094Z,19.54
2018-04-14T11:29:00.169Z,19.19
2018-04-14T11:30:00.109Z,19.37
2018-04-14T11:31:00.108Z,19.71
2018-04-14T11:32:00.117Z,19.80
2018-04-14T11:33:00.113Z,19.77
2018-04-14T11:34:00.148Z,19.71
2018-04-14T11:35:00.136Z,19.10
2018-04-14T11:36:00.133Z,19.10
2018-04-14T11:37:00.144Z,18.84
2018-04-14T11:38:00.147Z,18.81
2018-04-14T11:39:00.153Z,18.84
2018-04-14T11:40:00.164Z,18.81
2018-04-14T11:41:00.168Z,18.67
2018-04-14T11:42:00.158Z,18.72
2018-04-14T11:43:00.174Z,18.98
2018-04-14T11:44:00.250Z,19.28
2018-04-14T11:45:00.193Z,19.43
2018-04-14T11:46:00.221Z,19.18
2018-04-14T11:47:00.185Z,19.25
2018-04-14T11:48:00.197Z,19.25
2018-04-14T11:49:00.201Z,19.36
2018-04-14T11:50:00.252Z,19.81
2018-04-14T11:51:00.217Z,19.48
2018-04-14T11:52:00.203Z,19.51
2018-04-14T11:53:00.403Z,19.77
2018-04-14T11:54:00.223Z,19.69
2018-04-14T11:55:00.230Z,19.87
2018-04-14T11:56:00.227Z,20.11
2018-04-14T11:57:00.237Z,20.35
2018-04-14T11:58:00.243Z,20.82
2018-04-14T11:59:00.267Z,20.61
2018-04-14T12:00:00.258Z,20.36
2018-04-14T12:01:00.285Z,20.72
2018-04-14T12:02:00.263Z,20.85
2018-04-14T12:03:01.159Z,20.82
2018-04-14T12:04:00.279Z,20.87
2018-04-14T12:05:00.275Z,20.87
2018-04-14T12:06:00.277Z,20.76
2018-04-14T12:07:01.164Z,20.28
2018-04-14T12:08:00.299Z,19.92
2018-04-14T12:09:00.306Z,19.40
2018-04-14T12:10:00.394Z,19.48
2018-04-14T12:11:00.320Z,19.55
2018-04-14T12:12:00.306Z,19.39
2018-04-14T12:13:00.335Z,19.22
2018-04-14T12:14:00.335Z,19.23
2018-04-14T12:15:00.332Z,19.26
2018-04-14T12:16:00.362Z,19.19
2018-04-14T12:17:00.343Z,19.23
2018-04-14T12:18:00.346Z,18.84
2018-04-14T12:19:00.349Z,18.99
2018-04-14T12:20:00.350Z,19.58
2018-04-14T12:21:00.351Z,19.55
2018-04-14T12:22:00.365Z,19.71
2018-04-14T12:23:00.388Z,19.71
2018-04-14T12:24:00.370Z,19.65
2018-04-14T12:25:00.441Z,19.37
2018-04-14T12:26:00.374Z,19.00
2018-04-14T12:27:00.384Z,18.69
2018-04-14T12:28:00.397Z,18.69
2018-04-14T12:29:00.398Z,18.82
2018-04-14T12:30:00.419Z,18.98
2018-04-14T12:31:00.406Z,18.82
2018-04-14T12:32:00.406Z,18.99
2018-04-14T12:33:00.418Z,19.06
2018-04-14T12:34:00.414Z,19.13
2018-04-14T12:35:00.420Z,19.22
2018-04-14T12:36:00.433Z,19.19
2018-04-14T12:37:00.440Z,19.23
2018-04-14T12:38:00.433Z,18.92
2018-04-14T12:39:00.454Z,18.88
2018-04-14T12:40:00.466Z,19.16
2018-04-14T12:41:00.453Z,19.04
2018-04-14T12:42:00.461Z,19.16
2018-04-14T12:43:00.458Z,19.04
2018-04-14T12:44:00.473Z,18.95
2018-04-14T12:45:00.475Z,19.07
2018-04-14T12:46:00.521Z,18.91
2018-04-14T12:47:00.480Z,19.00
2018-04-14T12:48:00.524Z,19.06
2018-04-14T12:49:00.495Z,19.07
2018-04-14T12:50:00.493Z,18.66
2018-04-14T12:51:00.532Z,18.32
2018-04-14T12:52:00.510Z,18.27
2018-04-14T12:53:00.499Z,18.25